sensor_id;sensor_type;location;lat;lon;timestamp;pressure;altitude;pressure_sealevel;temperature;humidity
70127;BME280;57491;42.694;23.314;2023-03-18T00:00:05;95542.25;;;5.02;62.39
70127;BME280;57491;42.694;23.314;2023-03-18T00:02:36;95544.03;;;5.11;62.92
70127;BME280;57491;42.694;23.314;2023-03-18T00:05:04;95542.81;;;5.15;62.91
70127;BME280;57491;42.694;23.314;2023-03-18T00:07:32;95542.16;;;5.13;62.30
70127;BME280;57491;42.694;23.314;2023-03-18T00:09:59;95532.66;;;5.13;61.15
70127;BME280;57491;42.694;23.314;2023-03-18T00:12:26;95540.00;;;5.18;62.68
70127;BME280;57491;42.694;23.314;2023-03-18T00:14:53;95534.69;;;5.19;63.36
70127;BME280;57491;42.694;23.314;2023-03-18T00:17:20;95529.41;;;5.21;62.67
70127;BME280;57491;42.694;23.314;2023-03-18T00:19:48;95532.78;;;5.12;62.81
70127;BME280;57491;42.694;23.314;2023-03-18T00:22:15;95520.31;;;5.17;63.82
70127;BME280;57491;42.694;23.314;2023-03-18T00:24:43;95516.22;;;5.14;63.56
70127;BME280;57491;42.694;23.314;2023-03-18T00:27:10;95523.13;;;5.23;63.80
70127;BME280;57491;42.694;23.314;2023-03-18T00:29:37;95513.00;;;5.22;63.86
70127;BME280;57491;42.694;23.314;2023-03-18T00:32:05;95514.47;;;5.15;62.93
70127;BME280;57491;42.694;23.314;2023-03-18T00:34:33;95515.81;;;5.09;63.24
70127;BME280;57491;42.694;23.314;2023-03-18T00:37:02;95512.69;;;5.06;64.46
70127;BME280;57491;42.694;23.314;2023-03-18T00:39:29;95516.06;;;4.97;63.60
70127;BME280;57491;42.694;23.314;2023-03-18T00:41:57;95505.50;;;4.90;63.95
70127;BME280;57491;42.694;23.314;2023-03-18T00:44:26;95496.63;;;4.73;63.62
70127;BME280;57491;42.694;23.314;2023-03-18T00:46:53;95496.38;;;4.67;64.29
70127;BME280;57491;42.694;23.314;2023-03-18T00:49:20;95492.84;;;4.68;64.92
70127;BME280;57491;42.694;23.314;2023-03-18T00:51:48;95503.97;;;4.68;65.30
70127;BME280;57491;42.694;23.314;2023-03-18T00:54:17;95492.03;;;4.67;64.51
70127;BME280;57491;42.694;23.314;2023-03-18T00:56:45;95485.66;;;4.62;65.65
70127;BME280;57491;42.694;23.314;2023-03-18T00:59:12;95482.00;;;4.55;63.71
70127;BME280;57491;42.694;23.314;2023-03-18T01:01:39;95485.66;;;4.62;64.26
70127;BME280;57491;42.694;23.314;2023-03-18T01:04:07;95475.31;;;4.52;63.62
70127;BME280;57491;42.694;23.314;2023-03-18T01:06:36;95472.88;;;4.50;64.88
70127;BME280;57491;42.694;23.314;2023-03-18T01:09:05;95464.75;;;4.45;65.01
70127;BME280;57491;42.694;23.314;2023-03-18T01:11:34;95473.28;;;4.56;65.19
70127;BME280;57491;42.694;23.314;2023-03-18T01:14:01;95462.19;;;4.45;65.82
70127;BME280;57491;42.694;23.314;2023-03-18T01:16:29;95472.47;;;4.55;65.31
70127;BME280;57491;42.694;23.314;2023-03-18T01:18:56;95460.56;;;4.54;65.29
70127;BME280;57491;42.694;23.314;2023-03-18T01:21:24;95474.00;;;4.58;65.65
70127;BME280;57491;42.694;23.314;2023-03-18T01:23:51;95476.03;;;4.54;66.47
70127;BME280;57491;42.694;23.314;2023-03-18T01:26:18;95463.41;;;4.61;66.82
70127;BME280;57491;42.694;23.314;2023-03-18T01:28:47;95460.84;;;4.61;66.99
70127;BME280;57491;42.694;23.314;2023-03-18T01:31:14;95469.66;;;4.58;65.72
70127;BME280;57491;42.694;23.314;2023-03-18T01:33:41;95465.75;;;4.64;65.74
70127;BME280;57491;42.694;23.314;2023-03-18T01:36:08;95469.38;;;4.61;66.06
70127;BME280;57491;42.694;23.314;2023-03-18T01:38:36;95452.44;;;4.49;65.19
70127;BME280;57491;42.694;23.314;2023-03-18T01:41:05;95466.94;;;4.50;64.82
70127;BME280;57491;42.694;23.314;2023-03-18T01:43:34;95446.16;;;4.42;66.18
70127;BME280;57491;42.694;23.314;2023-03-18T01:49:10;95467.03;;;4.39;66.77
70127;BME280;57491;42.694;23.314;2023-03-18T01:51:39;95460.41;;;4.36;66.74
70127;BME280;57491;42.694;23.314;2023-03-18T01:54:07;95464.16;;;4.32;66.42
70127;BME280;57491;42.694;23.314;2023-03-18T01:56:38;95465.09;;;4.22;65.73
70127;BME280;57491;42.694;23.314;2023-03-18T01:59:07;95464.41;;;4.20;66.60
70127;BME280;57491;42.694;23.314;2023-03-18T02:01:39;95456.13;;;4.16;65.51
70127;BME280;57491;42.694;23.314;2023-03-18T02:04:09;95458.81;;;4.15;66.49
70127;BME280;57491;42.694;23.314;2023-03-18T02:06:37;95451.66;;;4.09;66.40
70127;BME280;57491;42.694;23.314;2023-03-18T02:09:05;95450.94;;;4.07;66.77
70127;BME280;57491;42.694;23.314;2023-03-18T02:11:36;95444.56;;;4.01;66.81
70127;BME280;57491;42.694;23.314;2023-03-18T02:14:06;95446.63;;;4.07;66.61
70127;BME280;57491;42.694;23.314;2023-03-18T02:16:41;95447.44;;;4.08;66.90
70127;BME280;57491;42.694;23.314;2023-03-18T02:19:17;95445.28;;;4.13;67.06
70127;BME280;57491;42.694;23.314;2023-03-18T02:21:55;95450.69;;;4.10;65.06
70127;BME280;57491;42.694;23.314;2023-03-18T02:24:34;95440.66;;;4.07;64.36
70127;BME280;57491;42.694;23.314;2023-03-18T02:27:12;95443.50;;;4.03;64.57
70127;BME280;57491;42.694;23.314;2023-03-18T02:29:41;95452.03;;;4.04;64.43
70127;BME280;57491;42.694;23.314;2023-03-18T02:32:09;95449.31;;;4.05;65.22
70127;BME280;57491;42.694;23.314;2023-03-18T02:34:39;95432.22;;;3.95;64.53
70127;BME280;57491;42.694;23.314;2023-03-18T02:37:07;95436.16;;;3.99;66.39
70127;BME280;57491;42.694;23.314;2023-03-18T02:39:36;95442.69;;;4.03;66.02
70127;BME280;57491;42.694;23.314;2023-03-18T02:42:03;95446.06;;;4.03;67.01
70127;BME280;57491;42.694;23.314;2023-03-18T02:44:33;95457.03;;;4.05;67.80
70127;BME280;57491;42.694;23.314;2023-03-18T02:47:07;95434.97;;;4.03;67.29
70127;BME280;57491;42.694;23.314;2023-03-18T02:49:36;95435.50;;;4.07;67.45
70127;BME280;57491;42.694;23.314;2023-03-18T02:52:03;95444.75;;;4.09;66.84
70127;BME280;57491;42.694;23.314;2023-03-18T02:54:31;95439.41;;;4.01;68.72
70127;BME280;57491;42.694;23.314;2023-03-18T02:56:58;95445.38;;;4.01;67.52
70127;BME280;57491;42.694;23.314;2023-03-18T02:59:26;95450.34;;;3.93;65.63
70127;BME280;57491;42.694;23.314;2023-03-18T03:01:54;95445.97;;;3.84;67.79
70127;BME280;57491;42.694;23.314;2023-03-18T03:04:23;95448.66;;;3.73;69.08
70127;BME280;57491;42.694;23.314;2023-03-18T03:06:51;95442.13;;;3.69;66.88
70127;BME280;57491;42.694;23.314;2023-03-18T03:09:19;95447.53;;;3.66;67.92
70127;BME280;57491;42.694;23.314;2023-03-18T03:11:47;95448.53;;;3.54;67.84
70127;BME280;57491;42.694;23.314;2023-03-18T03:14:15;95453.44;;;3.57;68.40
70127;BME280;57491;42.694;23.314;2023-03-18T03:16:42;95447.84;;;3.52;68.69
70127;BME280;57491;42.694;23.314;2023-03-18T03:19:11;95458.13;;;3.52;68.91
70127;BME280;57491;42.694;23.314;2023-03-18T03:21:38;95452.44;;;3.48;69.30
70127;BME280;57491;42.694;23.314;2023-03-18T03:24:06;95462.03;;;3.46;68.53
70127;BME280;57491;42.694;23.314;2023-03-18T03:26:34;95453.88;;;3.41;69.51
70127;BME280;57491;42.694;23.314;2023-03-18T03:29:03;95463.03;;;3.34;68.59
70127;BME280;57491;42.694;23.314;2023-03-18T03:31:30;95469.34;;;3.30;69.96
70127;BME280;57491;42.694;23.314;2023-03-18T03:33:57;95459.91;;;3.31;69.44
70127;BME280;57491;42.694;23.314;2023-03-18T03:36:25;95464.94;;;3.32;69.49
70127;BME280;57491;42.694;23.314;2023-03-18T03:38:53;95459.63;;;3.34;69.83
70127;BME280;57491;42.694;23.314;2023-03-18T03:41:20;95469.91;;;3.34;70.45
70127;BME280;57491;42.694;23.314;2023-03-18T03:43:47;95460.34;;;3.36;69.65
70127;BME280;57491;42.694;23.314;2023-03-18T03:46:14;95472.00;;;3.40;69.50
70127;BME280;57491;42.694;23.314;2023-03-18T03:48:41;95471.50;;;3.46;69.53
70127;BME280;57491;42.694;23.314;2023-03-18T03:51:08;95465.00;;;3.42;69.11
70127;BME280;57491;42.694;23.314;2023-03-18T03:53:36;95466.84;;;3.40;70.39
70127;BME280;57491;42.694;23.314;2023-03-18T03:56:06;95469.97;;;3.43;69.97
70127;BME280;57491;42.694;23.314;2023-03-18T03:58:33;95465.22;;;3.39;69.02
70127;BME280;57491;42.694;23.314;2023-03-18T04:01:01;95472.25;;;3.37;69.36
70127;BME280;57491;42.694;23.314;2023-03-18T04:03:29;95469.91;;;3.34;69.16
70127;BME280;57491;42.694;23.314;2023-03-18T04:05:56;95471.09;;;3.30;70.30
70127;BME280;57491;42.694;23.314;2023-03-18T04:08:23;95460.16;;;3.28;70.45
70127;BME280;57491;42.694;23.314;2023-03-18T04:10:52;95471.66;;;3.33;69.43
70127;BME280;57491;42.694;23.314;2023-03-18T04:13:19;95483.47;;;3.36;70.29
70127;BME280;57491;42.694;23.314;2023-03-18T04:15:46;95479.25;;;3.35;69.57
70127;BME280;57491;42.694;23.314;2023-03-18T04:18:13;95480.81;;;3.26;69.72
70127;BME280;57491;42.694;23.314;2023-03-18T04:20:41;95490.63;;;3.32;69.98
70127;BME280;57491;42.694;23.314;2023-03-18T04:23:09;95498.94;;;3.25;69.84
70127;BME280;57491;42.694;23.314;2023-03-18T04:25:36;95493.56;;;3.28;70.51
70127;BME280;57491;42.694;23.314;2023-03-18T04:28:04;95501.50;;;3.25;69.72
70127;BME280;57491;42.694;23.314;2023-03-18T04:30:31;95495.50;;;3.14;69.03
70127;BME280;57491;42.694;23.314;2023-03-18T04:32:59;95502.56;;;3.22;70.17
70127;BME280;57491;42.694;23.314;2023-03-18T04:35:26;95510.63;;;3.29;70.61
70127;BME280;57491;42.694;23.314;2023-03-18T04:37:54;95514.56;;;3.33;71.20
70127;BME280;57491;42.694;23.314;2023-03-18T04:40:21;95499.94;;;3.33;69.03
70127;BME280;57491;42.694;23.314;2023-03-18T04:42:48;95512.03;;;3.42;68.24
70127;BME280;57491;42.694;23.314;2023-03-18T04:45:17;95508.31;;;3.46;68.87
70127;BME280;57491;42.694;23.314;2023-03-18T04:47:45;95517.50;;;3.49;68.03
70127;BME280;57491;42.694;23.314;2023-03-18T04:50:12;95517.25;;;3.52;68.14
70127;BME280;57491;42.694;23.314;2023-03-18T04:52:41;95514.19;;;3.37;64.36
70127;BME280;57491;42.694;23.314;2023-03-18T04:55:10;95516.88;;;3.36;63.33
70127;BME280;57491;42.694;23.314;2023-03-18T04:57:38;95523.69;;;3.26;62.00
70127;BME280;57491;42.694;23.314;2023-03-18T05:00:09;95516.53;;;3.29;63.85
70127;BME280;57491;42.694;23.314;2023-03-18T05:02:38;95523.66;;;3.37;63.26
70127;BME280;57491;42.694;23.314;2023-03-18T05:05:06;95524.78;;;3.44;62.63
70127;BME280;57491;42.694;23.314;2023-03-18T05:07:33;95518.88;;;3.53;63.27
70127;BME280;57491;42.694;23.314;2023-03-18T05:10:00;95523.84;;;3.66;62.31
70127;BME280;57491;42.694;23.314;2023-03-18T05:12:28;95519.31;;;3.79;61.34
70127;BME280;57491;42.694;23.314;2023-03-18T05:14:55;95511.91;;;3.85;60.11
70127;BME280;57491;42.694;23.314;2023-03-18T05:17:22;95505.91;;;3.96;59.95
70127;BME280;57491;42.694;23.314;2023-03-18T05:19:51;95508.69;;;4.14;62.10
70127;BME280;57491;42.694;23.314;2023-03-18T05:22:19;95501.91;;;4.13;60.48
70127;BME280;57491;42.694;23.314;2023-03-18T05:24:47;95508.19;;;4.29;60.71
70127;BME280;57491;42.694;23.314;2023-03-18T05:27:16;95504.41;;;4.33;60.49
70127;BME280;57491;42.694;23.314;2023-03-18T05:29:45;95498.75;;;4.39;60.20
70127;BME280;57491;42.694;23.314;2023-03-18T05:32:12;95505.56;;;4.60;61.09
70127;BME280;57491;42.694;23.314;2023-03-18T05:34:41;95508.06;;;4.80;62.23
70127;BME280;57491;42.694;23.314;2023-03-18T05:37:12;95508.34;;;4.97;60.29
70127;BME280;57491;42.694;23.314;2023-03-18T05:39:41;95509.47;;;5.13;60.66
70127;BME280;57491;42.694;23.314;2023-03-18T05:42:08;95515.94;;;5.27;59.77
70127;BME280;57491;42.694;23.314;2023-03-18T05:44:36;95511.47;;;5.48;58.36
70127;BME280;57491;42.694;23.314;2023-03-18T05:47:03;95517.41;;;5.68;58.64
70127;BME280;57491;42.694;23.314;2023-03-18T05:49:31;95522.44;;;5.89;56.80
70127;BME280;57491;42.694;23.314;2023-03-18T05:51:58;95527.72;;;5.68;57.06
70127;BME280;57491;42.694;23.314;2023-03-18T05:54:27;95526.25;;;5.46;58.40
70127;BME280;57491;42.694;23.314;2023-03-18T05:56:54;95529.94;;;5.53;59.41
70127;BME280;57491;42.694;23.314;2023-03-18T05:59:21;95528.44;;;5.51;56.67
70127;BME280;57491;42.694;23.314;2023-03-18T06:01:50;95534.16;;;5.45;56.35
70127;BME280;57491;42.694;23.314;2023-03-18T06:04:17;95537.66;;;5.24;57.27
70127;BME280;57491;42.694;23.314;2023-03-18T06:06:45;95533.75;;;5.30;56.96
70127;BME280;57491;42.694;23.314;2023-03-18T06:09:13;95533.59;;;5.22;56.97
70127;BME280;57491;42.694;23.314;2023-03-18T06:11:41;95540.78;;;5.28;56.91
70127;BME280;57491;42.694;23.314;2023-03-18T06:14:09;95536.72;;;5.16;57.84
70127;BME280;57491;42.694;23.314;2023-03-18T06:16:36;95536.31;;;5.11;57.26
70127;BME280;57491;42.694;23.314;2023-03-18T06:19:03;95543.06;;;5.02;57.39
70127;BME280;57491;42.694;23.314;2023-03-18T06:21:31;95542.78;;;4.95;60.17
70127;BME280;57491;42.694;23.314;2023-03-18T06:23:58;95540.50;;;5.12;59.03
70127;BME280;57491;42.694;23.314;2023-03-18T06:26:25;95531.16;;;5.30;57.11
70127;BME280;57491;42.694;23.314;2023-03-18T06:28:55;95544.44;;;5.54;57.18
70127;BME280;57491;42.694;23.314;2023-03-18T06:31:23;95536.28;;;5.78;55.76
70127;BME280;57491;42.694;23.314;2023-03-18T06:33:50;95533.25;;;6.11;56.33
70127;BME280;57491;42.694;23.314;2023-03-18T06:36:20;95532.31;;;6.40;54.61
70127;BME280;57491;42.694;23.314;2023-03-18T06:38:47;95531.16;;;6.61;53.88
70127;BME280;57491;42.694;23.314;2023-03-18T06:41:14;95518.50;;;6.86;52.18
70127;BME280;57491;42.694;23.314;2023-03-18T06:43:41;95517.47;;;6.79;52.02
70127;BME280;57491;42.694;23.314;2023-03-18T06:46:10;95521.00;;;6.78;52.66
70127;BME280;57491;42.694;23.314;2023-03-18T06:48:39;95520.13;;;6.87;52.39
70127;BME280;57491;42.694;23.314;2023-03-18T06:51:06;95512.91;;;7.08;52.54
70127;BME280;57491;42.694;23.314;2023-03-18T06:53:34;95511.53;;;7.31;51.80
70127;BME280;57491;42.694;23.314;2023-03-18T06:56:01;95520.97;;;7.40;52.49
70127;BME280;57491;42.694;23.314;2023-03-18T06:58:28;95516.31;;;7.61;51.16
70127;BME280;57491;42.694;23.314;2023-03-18T07:00:56;95504.78;;;7.74;50.07
70127;BME280;57491;42.694;23.314;2023-03-18T07:03:25;95508.00;;;7.76;50.47
70127;BME280;57491;42.694;23.314;2023-03-18T07:05:53;95511.53;;;7.75;51.10
70127;BME280;57491;42.694;23.314;2023-03-18T07:08:20;95505.31;;;8.11;50.00
70127;BME280;57491;42.694;23.314;2023-03-18T07:10:50;95507.72;;;8.30;48.97
70127;BME280;57491;42.694;23.314;2023-03-18T07:13:18;95513.38;;;8.60;48.24
70127;BME280;57491;42.694;23.314;2023-03-18T07:15:45;95511.50;;;8.78;48.31
70127;BME280;57491;42.694;23.314;2023-03-18T07:18:12;95503.09;;;8.92;46.98
70127;BME280;57491;42.694;23.314;2023-03-18T07:20:41;95502.44;;;8.82;47.47
70127;BME280;57491;42.694;23.314;2023-03-18T07:23:09;95513.81;;;8.89;47.26
70127;BME280;57491;42.694;23.314;2023-03-18T07:25:36;95506.38;;;8.94;47.48
70127;BME280;57491;42.694;23.314;2023-03-18T07:28:05;95504.31;;;9.22;46.54
70127;BME280;57491;42.694;23.314;2023-03-18T07:30:33;95507.91;;;9.45;46.61
70127;BME280;57491;42.694;23.314;2023-03-18T07:33:00;95504.00;;;9.73;46.36
70127;BME280;57491;42.694;23.314;2023-03-18T07:35:30;95515.72;;;9.85;45.44
70127;BME280;57491;42.694;23.314;2023-03-18T07:37:59;95519.09;;;10.18;45.46
70127;BME280;57491;42.694;23.314;2023-03-18T07:40:26;95517.72;;;10.47;44.29
70127;BME280;57491;42.694;23.314;2023-03-18T07:42:53;95519.47;;;10.54;44.09
70127;BME280;57491;42.694;23.314;2023-03-18T07:45:21;95512.28;;;10.64;43.80
70127;BME280;57491;42.694;23.314;2023-03-18T07:47:48;95514.69;;;10.74;43.41
70127;BME280;57491;42.694;23.314;2023-03-18T07:50:15;95517.78;;;11.08;42.92
70127;BME280;57491;42.694;23.314;2023-03-18T07:52:43;95518.44;;;11.10;41.92
70127;BME280;57491;42.694;23.314;2023-03-18T07:55:12;95519.88;;;11.13;41.82
70127;BME280;57491;42.694;23.314;2023-03-18T07:57:40;95517.72;;;11.47;41.24
70127;BME280;57491;42.694;23.314;2023-03-18T08:00:10;95505.00;;;11.75;41.28
70127;BME280;57491;42.694;23.314;2023-03-18T08:02:38;95510.56;;;12.10;41.29
70127;BME280;57491;42.694;23.314;2023-03-18T08:05:06;95509.88;;;12.16;39.61
70127;BME280;57491;42.694;23.314;2023-03-18T08:07:33;95512.28;;;12.32;39.46
70127;BME280;57491;42.694;23.314;2023-03-18T08:10:01;95507.81;;;12.70;40.17
70127;BME280;57491;42.694;23.314;2023-03-18T08:12:30;95497.69;;;13.11;39.21
70127;BME280;57491;42.694;23.314;2023-03-18T08:14:58;95494.09;;;13.33;37.18
70127;BME280;57491;42.694;23.314;2023-03-18T08:17:25;95495.72;;;13.34;37.74
70127;BME280;57491;42.694;23.314;2023-03-18T08:19:53;95502.19;;;13.38;37.91
70127;BME280;57491;42.694;23.314;2023-03-18T08:22:20;95507.88;;;13.63;37.65
70127;BME280;57491;42.694;23.314;2023-03-18T08:24:48;95501.84;;;13.62;36.76
70127;BME280;57491;42.694;23.314;2023-03-18T08:27:16;95510.38;;;13.50;36.89
70127;BME280;57491;42.694;23.314;2023-03-18T08:29:45;95510.84;;;13.81;37.73
70127;BME280;57491;42.694;23.314;2023-03-18T08:32:12;95506.22;;;14.04;36.18
70127;BME280;57491;42.694;23.314;2023-03-18T08:34:39;95502.97;;;14.02;35.61
70127;BME280;57491;42.694;23.314;2023-03-18T08:37:07;95506.34;;;14.24;35.19
70127;BME280;57491;42.694;23.314;2023-03-18T08:39:34;95501.19;;;14.30;36.65
70127;BME280;57491;42.694;23.314;2023-03-18T08:42:02;95495.78;;;14.66;35.79
70127;BME280;57491;42.694;23.314;2023-03-18T08:44:29;95496.00;;;15.12;35.37
70127;BME280;57491;42.694;23.314;2023-03-18T08:46:58;95506.16;;;15.35;34.65
70127;BME280;57491;42.694;23.314;2023-03-18T08:49:26;95474.59;;;15.09;32.53
70127;BME280;57491;42.694;23.314;2023-03-18T08:51:53;95495.97;;;15.06;33.19
70127;BME280;57491;42.694;23.314;2023-03-18T08:54:21;95503.13;;;15.45;32.71
70127;BME280;57491;42.694;23.314;2023-03-18T08:56:48;95497.38;;;15.89;32.73
70127;BME280;57491;42.694;23.314;2023-03-18T08:59:15;95495.75;;;15.81;32.15
70127;BME280;57491;42.694;23.314;2023-03-18T09:01:42;95496.56;;;16.28;32.33
70127;BME280;57491;42.694;23.314;2023-03-18T09:04:10;95501.53;;;16.88;31.12
70127;BME280;57491;42.694;23.314;2023-03-18T09:06:38;95495.94;;;17.16;29.99
70127;BME280;57491;42.694;23.314;2023-03-18T09:09:05;95501.03;;;17.49;29.04
70127;BME280;57491;42.694;23.314;2023-03-18T09:11:32;95493.97;;;17.43;28.27
70127;BME280;57491;42.694;23.314;2023-03-18T09:14:00;95499.59;;;17.91;28.50
70127;BME280;57491;42.694;23.314;2023-03-18T09:16:27;95497.59;;;18.11;28.33
70127;BME280;57491;42.694;23.314;2023-03-18T09:18:54;95501.84;;;18.12;27.83
70127;BME280;57491;42.694;23.314;2023-03-18T09:21:23;95496.41;;;18.32;26.14
70127;BME280;57491;42.694;23.314;2023-03-18T09:23:50;95495.97;;;18.60;26.00
70127;BME280;57491;42.694;23.314;2023-03-18T09:26:18;95499.25;;;18.31;26.36
70127;BME280;57491;42.694;23.314;2023-03-18T09:28:45;95502.13;;;18.72;26.96
70127;BME280;57491;42.694;23.314;2023-03-18T09:31:12;95500.88;;;19.11;25.97
70127;BME280;57491;42.694;23.314;2023-03-18T09:33:40;95501.00;;;19.34;24.53
70127;BME280;57491;42.694;23.314;2023-03-18T09:36:09;95489.09;;;19.62;23.17
70127;BME280;57491;42.694;23.314;2023-03-18T09:38:37;95498.84;;;19.43;22.59
70127;BME280;57491;42.694;23.314;2023-03-18T09:41:09;95497.94;;;18.83;24.22
70127;BME280;57491;42.694;23.314;2023-03-18T09:43:51;95499.69;;;18.27;24.90
70127;BME280;57491;42.694;23.314;2023-03-18T09:46:28;95498.38;;;18.61;25.30
70127;BME280;57491;42.694;23.314;2023-03-18T09:49:24;95494.38;;;19.13;24.52
70127;BME280;57491;42.694;23.314;2023-03-18T09:52:04;95483.47;;;17.81;25.42
70127;BME280;57491;42.694;23.314;2023-03-18T09:54:39;95491.53;;;18.11;24.82
70127;BME280;57491;42.694;23.314;2023-03-18T09:57:13;95496.06;;;18.47;25.40
70127;BME280;57491;42.694;23.314;2023-03-18T09:59:45;95490.19;;;19.06;24.63
70127;BME280;57491;42.694;23.314;2023-03-18T10:02:20;95469.81;;;19.61;24.44
70127;BME280;57491;42.694;23.314;2023-03-18T10:04:51;95460.66;;;20.52;23.67
70127;BME280;57491;42.694;23.314;2023-03-18T10:07:23;95480.44;;;21.52;22.65
70127;BME280;57491;42.694;23.314;2023-03-18T10:09:55;95480.66;;;21.79;22.27
70127;BME280;57491;42.694;23.314;2023-03-18T10:12:29;95481.28;;;22.14;21.45
70127;BME280;57491;42.694;23.314;2023-03-18T10:15:05;95482.47;;;22.40;20.40
70127;BME280;57491;42.694;23.314;2023-03-18T10:17:37;95488.47;;;22.52;19.79
70127;BME280;57491;42.694;23.314;2023-03-18T10:20:14;95486.03;;;22.67;20.01
70127;BME280;57491;42.694;23.314;2023-03-18T10:22:51;95491.03;;;22.81;18.71
70127;BME280;57491;42.694;23.314;2023-03-18T10:25:26;95489.06;;;22.93;18.25
70127;BME280;57491;42.694;23.314;2023-03-18T10:28:03;95487.78;;;22.95;17.55
70127;BME280;57491;42.694;23.314;2023-03-18T10:30:42;95486.50;;;22.09;18.04
70127;BME280;57491;42.694;23.314;2023-03-18T10:33:16;95478.97;;;21.16;19.21
70127;BME280;57491;42.694;23.314;2023-03-18T10:35:51;95483.06;;;20.61;20.71
70127;BME280;57491;42.694;23.314;2023-03-18T10:38:22;95459.69;;;20.81;21.13
70127;BME280;57491;42.694;23.314;2023-03-18T10:40:51;95473.50;;;21.79;20.40
70127;BME280;57491;42.694;23.314;2023-03-18T10:43:22;95468.44;;;21.61;19.40
70127;BME280;57491;42.694;23.314;2023-03-18T10:45:58;95474.66;;;20.64;19.90
70127;BME280;57491;42.694;23.314;2023-03-18T10:48:31;95462.59;;;20.79;20.17
70127;BME280;57491;42.694;23.314;2023-03-18T10:51:06;95462.34;;;21.32;18.52
70127;BME280;57491;42.694;23.314;2023-03-18T10:53:39;95462.09;;;21.62;18.71
70127;BME280;57491;42.694;23.314;2023-03-18T10:56:11;95461.53;;;21.60;18.48
70127;BME280;57491;42.694;23.314;2023-03-18T10:58:40;95460.69;;;22.38;17.23
70127;BME280;57491;42.694;23.314;2023-03-18T11:01:10;95463.81;;;21.40;17.95
70127;BME280;57491;42.694;23.314;2023-03-18T11:03:41;95450.50;;;20.14;20.42
70127;BME280;57491;42.694;23.314;2023-03-18T11:06:15;95470.56;;;19.50;22.68
70127;BME280;57491;42.694;23.314;2023-03-18T11:08:47;95466.28;;;18.71;23.83
70127;BME280;57491;42.694;23.314;2023-03-18T11:11:20;95464.88;;;17.76;24.04
70127;BME280;57491;42.694;23.314;2023-03-18T11:13:49;95470.34;;;16.99;25.26
70127;BME280;57491;42.694;23.314;2023-03-18T11:16:24;95463.00;;;16.49;25.85
70127;BME280;57491;42.694;23.314;2023-03-18T11:18:54;95460.66;;;16.15;27.03
70127;BME280;57491;42.694;23.314;2023-03-18T11:21:22;95453.19;;;15.86;25.98
70127;BME280;57491;42.694;23.314;2023-03-18T11:23:56;95455.81;;;15.59;26.29
70127;BME280;57491;42.694;23.314;2023-03-18T11:26:46;95440.91;;;15.93;27.48
70127;BME280;57491;42.694;23.314;2023-03-18T11:29:17;95460.41;;;17.83;25.57
70127;BME280;57491;42.694;23.314;2023-03-18T11:31:48;95442.84;;;19.59;21.39
70127;BME280;57491;42.694;23.314;2023-03-18T11:34:17;95436.84;;;21.26;19.74
70127;BME280;57491;42.694;23.314;2023-03-18T11:36:52;95445.94;;;22.42;18.32
70127;BME280;57491;42.694;23.314;2023-03-18T11:39:22;95449.50;;;23.35;17.01
70127;BME280;57491;42.694;23.314;2023-03-18T11:41:51;95445.03;;;23.89;16.48
70127;BME280;57491;42.694;23.314;2023-03-18T11:44:23;95430.88;;;24.94;16.02
70127;BME280;57491;42.694;23.314;2023-03-18T11:46:54;95437.47;;;25.59;15.80
70127;BME280;57491;42.694;23.314;2023-03-18T11:49:25;95449.25;;;26.03;14.79
70127;BME280;57491;42.694;23.314;2023-03-18T11:52:03;95446.00;;;26.92;14.01
70127;BME280;57491;42.694;23.314;2023-03-18T11:54:55;95455.13;;;27.40;14.21
70127;BME280;57491;42.694;23.314;2023-03-18T11:57:33;95458.31;;;27.91;13.05
70127;BME280;57491;42.694;23.314;2023-03-18T12:00:12;95443.63;;;27.45;13.08
70127;BME280;57491;42.694;23.314;2023-03-18T12:02:51;95455.38;;;27.88;12.88
70127;BME280;57491;42.694;23.314;2023-03-18T12:05:35;95449.25;;;26.39;14.79
70127;BME280;57491;42.694;23.314;2023-03-18T12:08:13;95448.09;;;27.00;13.50
70127;BME280;57491;42.694;23.314;2023-03-18T12:10:45;95445.22;;;26.72;14.53
70127;BME280;57491;42.694;23.314;2023-03-18T12:13:29;95451.66;;;26.30;13.97
70127;BME280;57491;42.694;23.314;2023-03-18T12:16:06;95447.09;;;25.85;15.36
70127;BME280;57491;42.694;23.314;2023-03-18T12:18:47;95438.94;;;27.22;15.25
70127;BME280;57491;42.694;23.314;2023-03-18T12:21:39;95457.47;;;27.57;13.18
70127;BME280;57491;42.694;23.314;2023-03-18T12:24:25;95453.25;;;27.41;12.40
70127;BME280;57491;42.694;23.314;2023-03-18T12:27:02;95440.25;;;27.24;12.63
70127;BME280;57491;42.694;23.314;2023-03-18T12:29:42;95436.00;;;27.72;12.58
70127;BME280;57491;42.694;23.314;2023-03-18T12:32:23;95444.38;;;26.81;12.51
70127;BME280;57491;42.694;23.314;2023-03-18T12:35:07;95432.13;;;27.55;13.13
70127;BME280;57491;42.694;23.314;2023-03-18T12:37:44;95433.03;;;28.18;12.58
70127;BME280;57491;42.694;23.314;2023-03-18T12:40:34;95433.38;;;27.67;13.28
70127;BME280;57491;42.694;23.314;2023-03-18T12:43:19;95427.13;;;29.45;12.21
70127;BME280;57491;42.694;23.314;2023-03-18T12:45:56;95427.69;;;29.79;11.86
70127;BME280;57491;42.694;23.314;2023-03-18T12:48:29;95423.50;;;29.73;11.53
70127;BME280;57491;42.694;23.314;2023-03-18T12:51:01;95433.28;;;29.83;11.10
70127;BME280;57491;42.694;23.314;2023-03-18T12:53:32;95434.94;;;27.73;12.47
70127;BME280;57491;42.694;23.314;2023-03-18T12:56:04;95440.66;;;26.92;13.14
70127;BME280;57491;42.694;23.314;2023-03-18T12:58:37;95430.66;;;28.11;12.28
70127;BME280;57491;42.694;23.314;2023-03-18T13:01:10;95418.22;;;29.49;10.96
70127;BME280;57491;42.694;23.314;2023-03-18T13:03:44;95420.31;;;29.34;11.04
70127;BME280;57491;42.694;23.314;2023-03-18T13:06:16;95428.56;;;28.37;12.02
70127;BME280;57491;42.694;23.314;2023-03-18T13:08:58;95429.28;;;26.31;13.50
70127;BME280;57491;42.694;23.314;2023-03-18T13:14:26;95415.16;;;24.40;14.43